createdAt,value
2023-05-14T00:00:45.521Z,21.84
2023-05-14T00:03:12.365Z,21.44
2023-05-14T00:05:39.072Z,21.76
2023-05-14T00:08:06.153Z,21.88
2023-05-14T00:10:32.948Z,21.36
2023-05-14T00:12:59.516Z,21.88
2023-05-14T00:15:26.082Z,21.47
2023-05-14T00:17:52.871Z,21.85
2023-05-14T00:20:19.695Z,21.55
2023-05-14T00:22:46.311Z,22.19
2023-05-14T00:25:12.917Z,21.62
2023-05-14T00:27:39.520Z,21.43
2023-05-14T00:30:07.005Z,21.84
2023-05-14T00:32:33.815Z,21.54
2023-05-14T00:35:00.627Z,21.54
2023-05-14T00:37:27.266Z,22.63
2023-05-14T00:39:53.863Z,22.38
2023-05-14T00:42:20.569Z,22.36
2023-05-14T00:44:47.172Z,21.91
2023-05-14T00:47:13.906Z,22.15
2023-05-14T00:49:41.233Z,22.23
2023-05-14T00:52:08.694Z,22.09
2023-05-14T00:54:36.441Z,21.92
2023-05-14T00:57:04.882Z,21.81
2023-05-14T00:59:32.076Z,21.19
2023-05-14T01:01:58.920Z,21.63
2023-05-14T01:04:25.630Z,21.89
2023-05-14T01:07:10.547Z,22.08
2023-05-14T01:09:39.986Z,21.43
2023-05-14T01:12:27.683Z,20.97
2023-05-14T01:15:06.596Z,21.12
2023-05-14T01:18:01.431Z,20.98
2023-05-14T01:20:28.122Z,21.01
2023-05-14T01:22:54.768Z,20.68
2023-05-14T01:25:21.386Z,21.27
2023-05-14T01:28:12.910Z,20.69
2023-05-14T01:30:49.186Z,21.04
2023-05-14T01:33:18.318Z,20.86
2023-05-14T01:35:45.983Z,21.57
2023-05-14T01:38:17.791Z,20.98
2023-05-14T01:40:46.075Z,21.11
2023-05-14T01:43:13.769Z,21.23
2023-05-14T01:45:40.498Z,21.44
2023-05-14T01:48:07.466Z,21.84
2023-05-14T01:50:34.222Z,21.46
2023-05-14T01:53:01.100Z,21.60
2023-05-14T01:55:27.688Z,21.56
2023-05-14T01:57:54.628Z,21.37
2023-05-14T02:00:26.156Z,21.38
2023-05-14T02:02:53.207Z,21.74
2023-05-14T02:05:20.157Z,21.68
2023-05-14T02:07:46.843Z,22.31
2023-05-14T02:10:13.600Z,21.47
2023-05-14T02:12:40.251Z,21.52
2023-05-14T02:15:08.919Z,21.74
2023-05-14T02:17:35.646Z,21.18
2023-05-14T02:20:02.297Z,21.65
2023-05-14T02:22:28.857Z,21.76
2023-05-14T02:24:56.108Z,21.90
2023-05-14T02:27:22.757Z,22.16
2023-05-14T02:29:49.481Z,21.23
2023-05-14T02:32:16.059Z,21.67
2023-05-14T02:34:42.644Z,21.80
2023-05-14T02:37:09.209Z,20.83
2023-05-14T02:39:35.846Z,21.24
2023-05-14T02:42:02.503Z,21.73
2023-05-14T02:44:29.122Z,21.72
2023-05-14T02:46:55.804Z,21.96
2023-05-14T02:49:22.452Z,21.77
2023-05-14T02:51:49.015Z,21.57
2023-05-14T02:54:16.690Z,21.29
2023-05-14T02:56:43.327Z,21.41
2023-05-14T02:59:09.955Z,21.32
2023-05-14T03:01:37.089Z,21.67
2023-05-14T03:04:04.298Z,21.28
2023-05-14T03:06:31.483Z,21.40
2023-05-14T03:08:58.097Z,21.15
2023-05-14T03:11:24.800Z,21.46
2023-05-14T03:13:51.532Z,20.94
2023-05-14T03:16:18.154Z,21.60
2023-05-14T03:18:44.843Z,21.44
2023-05-14T03:21:11.475Z,21.57
2023-05-14T03:23:38.085Z,21.90
2023-05-14T03:26:04.965Z,21.72
2023-05-14T03:28:31.562Z,21.98
2023-05-14T03:30:58.354Z,21.80
2023-05-14T03:33:25.227Z,21.96
2023-05-14T03:35:51.932Z,22.34
2023-05-14T03:38:18.625Z,22.43
2023-05-14T03:40:45.605Z,21.47
2023-05-14T03:43:12.224Z,21.61
2023-05-14T03:45:39.819Z,21.82
2023-05-14T03:48:06.819Z,21.32
2023-05-14T03:50:33.596Z,21.46
2023-05-14T03:53:00.240Z,21.92
2023-05-14T03:55:26.942Z,21.70
2023-05-14T03:57:53.586Z,21.62
2023-05-14T04:00:21.297Z,21.80
2023-05-14T04:02:48.218Z,21.60
2023-05-14T04:05:14.872Z,21.30
2023-05-14T04:07:41.490Z,20.85
2023-05-14T04:10:08.684Z,21.01
2023-05-14T04:12:35.338Z,21.10
2023-05-14T04:15:02.038Z,21.03
2023-05-14T04:17:28.684Z,20.49
2023-05-14T04:19:55.382Z,21.41
2023-05-14T04:22:21.985Z,20.55
2023-05-14T04:24:48.566Z,19.89
2023-05-14T04:27:21.216Z,20.53
2023-05-14T04:29:48.929Z,20.08
2023-05-14T04:32:15.703Z,20.49
2023-05-14T04:34:42.417Z,19.25
2023-05-14T04:37:10.095Z,19.92
2023-05-14T04:39:36.763Z,19.69
2023-05-14T04:42:03.628Z,19.51
2023-05-14T04:44:30.486Z,19.36
2023-05-14T04:46:57.185Z,19.78
2023-05-14T04:49:23.796Z,18.88
2023-05-14T04:51:50.715Z,19.32
2023-05-14T04:54:17.413Z,18.86
2023-05-14T04:56:44.084Z,18.78
2023-05-14T04:59:10.723Z,18.38
2023-05-14T05:01:37.501Z,17.86
2023-05-14T05:04:04.278Z,18.30
2023-05-14T05:06:31.677Z,18.31
2023-05-14T05:08:59.547Z,17.96
2023-05-14T05:11:27.199Z,17.34
2023-05-14T05:13:53.783Z,17.83
2023-05-14T05:16:20.468Z,17.11
2023-05-14T05:18:47.245Z,17.71
2023-05-14T05:21:13.853Z,17.59
2023-05-14T05:23:40.394Z,17.12
2023-05-14T05:26:07.102Z,17.45
2023-05-14T05:28:33.665Z,17.50
2023-05-14T05:31:00.376Z,17.76
2023-05-14T05:33:27.169Z,17.32
2023-05-14T05:35:53.783Z,17.11
2023-05-14T05:38:20.382Z,16.88
2023-05-14T05:40:46.966Z,17.20
2023-05-14T05:43:14.700Z,16.82
2023-05-14T05:45:41.548Z,16.93
2023-05-14T05:48:08.203Z,17.15
2023-05-14T05:50:34.892Z,16.76
2023-05-14T05:53:01.553Z,16.82
2023-05-14T05:55:28.881Z,16.00
2023-05-14T05:57:56.112Z,16.64
2023-05-14T06:00:24.038Z,16.49
2023-05-14T06:02:50.926Z,16.09
2023-05-14T06:05:17.654Z,16.27
2023-05-14T06:07:44.271Z,16.43
2023-05-14T06:10:11.006Z,16.18
2023-05-14T06:12:37.637Z,16.04
2023-05-14T06:15:04.730Z,16.32
2023-05-14T06:17:31.333Z,16.42
2023-05-14T06:19:57.946Z,16.50
2023-05-14T06:22:24.550Z,15.79
2023-05-14T06:24:51.174Z,15.79
2023-05-14T06:27:17.788Z,15.59
2023-05-14T06:29:44.395Z,15.39
2023-05-14T06:32:11.854Z,15.01
2023-05-14T06:34:38.546Z,14.69
2023-05-14T06:37:05.572Z,14.88
2023-05-14T06:39:32.217Z,15.07
2023-05-14T06:41:58.819Z,15.39
2023-05-14T06:44:25.484Z,15.01
2023-05-14T06:46:52.093Z,14.40
2023-05-14T06:49:18.738Z,14.15
2023-05-14T06:51:45.859Z,14.26
2023-05-14T06:54:12.905Z,14.21
2023-05-14T06:56:39.528Z,14.23
2023-05-14T06:59:06.191Z,13.74
2023-05-14T07:01:32.803Z,14.01
2023-05-14T07:03:59.480Z,13.46
2023-05-14T07:06:26.099Z,13.42
2023-05-14T07:08:53.309Z,13.36
2023-05-14T07:11:19.946Z,12.98
2023-05-14T07:13:46.544Z,12.88
2023-05-14T07:16:13.243Z,12.76
2023-05-14T07:18:40.335Z,12.37
2023-05-14T07:21:07.083Z,12.67
2023-05-14T07:23:36.181Z,12.59
2023-05-14T07:26:03.339Z,12.69
2023-05-14T07:28:30.020Z,12.11
2023-05-14T07:30:56.807Z,11.59
2023-05-14T07:33:24.138Z,11.78
2023-05-14T07:35:51.556Z,11.48
2023-05-14T07:38:19.740Z,11.25
2023-05-14T07:40:46.390Z,11.22
2023-05-14T07:43:14.547Z,11.56
2023-05-14T07:45:41.377Z,11.53
2023-05-14T07:48:08.323Z,11.46
2023-05-14T07:50:34.988Z,11.87
2023-05-14T07:53:01.640Z,12.00
2023-05-14T07:55:28.323Z,12.57
2023-05-14T07:57:54.980Z,12.40
2023-05-14T08:00:21.676Z,11.83
2023-05-14T08:02:49.301Z,11.91
2023-05-14T08:05:16.644Z,11.94
2023-05-14T08:07:43.443Z,11.71
2023-05-14T08:10:10.644Z,11.50
2023-05-14T08:12:37.332Z,12.11
2023-05-14T08:15:04.467Z,12.53
2023-05-14T08:17:31.066Z,12.21
2023-05-14T08:19:57.686Z,12.88
2023-05-14T08:22:24.293Z,13.04
2023-05-14T08:24:50.896Z,12.87
2023-05-14T08:27:17.523Z,13.06
2023-05-14T08:29:44.142Z,12.29
2023-05-14T08:32:22.166Z,12.81
2023-05-14T08:34:50.770Z,12.16
2023-05-14T08:37:17.561Z,12.51
2023-05-14T08:39:44.327Z,12.57
2023-05-14T08:42:13.500Z,11.50
2023-05-14T08:44:50.182Z,11.59
2023-05-14T08:47:21.380Z,11.03
2023-05-14T08:49:53.149Z,11.30
2023-05-14T08:52:22.213Z,11.34
2023-05-14T08:54:52.718Z,10.66
2023-05-14T08:57:20.816Z,10.68
2023-05-14T08:59:47.719Z,10.43
2023-05-14T09:02:16.929Z,10.58
2023-05-14T09:04:44.268Z,10.05
2023-05-14T09:07:11.587Z,10.12
2023-05-14T09:09:38.656Z,9.93
2023-05-14T09:12:06.510Z,9.85
2023-05-14T09:14:33.605Z,9.96
2023-05-14T09:17:00.306Z,10.17
2023-05-14T09:19:27.154Z,9.83
2023-05-14T09:21:58.567Z,9.36
2023-05-14T09:24:29.061Z,9.19
2023-05-14T09:26:57.556Z,8.90
2023-05-14T09:29:29.470Z,8.93
2023-05-14T09:31:58.126Z,8.31
2023-05-14T09:34:32.715Z,8.80
2023-05-14T09:37:07.970Z,8.19
2023-05-14T09:39:36.661Z,8.41
2023-05-14T09:42:04.062Z,8.44
2023-05-14T09:44:31.830Z,8.72
2023-05-14T09:46:58.714Z,8.20
2023-05-14T09:49:25.410Z,8.22
2023-05-14T09:51:51.996Z,8.27
2023-05-14T09:54:18.662Z,8.31
2023-05-14T09:56:45.503Z,8.51
2023-05-14T09:59:12.207Z,8.39
2023-05-14T10:01:41.438Z,8.61
2023-05-14T10:04:11.029Z,8.24
2023-05-14T10:06:39.627Z,7.61
2023-05-14T10:09:12.954Z,8.28
2023-05-14T10:11:43.596Z,7.54
2023-05-14T10:14:28.248Z,7.39
2023-05-14T10:16:58.581Z,7.85
2023-05-14T10:19:26.689Z,7.43
2023-05-14T10:21:57.225Z,7.89
2023-05-14T10:24:25.600Z,7.82
2023-05-14T10:26:52.758Z,8.02
2023-05-14T10:29:19.380Z,7.56
2023-05-14T10:31:56.238Z,8.04
2023-05-14T10:34:38.917Z,7.96
2023-05-14T10:37:09.216Z,7.70
2023-05-14T10:39:53.726Z,7.35
2023-05-14T10:42:46.326Z,8.01
2023-05-14T10:45:14.916Z,7.77
2023-05-14T10:47:48.194Z,7.37
2023-05-14T10:50:16.142Z,7.75
2023-05-14T10:52:44.774Z,7.44
2023-05-14T10:55:17.004Z,7.57
2023-05-14T10:57:46.054Z,7.92
2023-05-14T11:00:14.633Z,7.90
2023-05-14T11:02:43.533Z,7.67
2023-05-14T11:05:16.947Z,7.19
2023-05-14T11:07:46.080Z,7.23
2023-05-14T11:10:15.029Z,7.56
2023-05-14T11:12:44.734Z,7.28
2023-05-14T11:15:14.463Z,7.20
2023-05-14T11:17:43.393Z,7.07
2023-05-14T11:20:11.271Z,6.92
2023-05-14T11:22:39.836Z,7.41
2023-05-14T11:25:07.713Z,7.18
2023-05-14T11:27:38.584Z,7.21
2023-05-14T11:30:06.638Z,6.88
2023-05-14T11:32:33.849Z,7.43
2023-05-14T11:35:00.771Z,7.34
2023-05-14T11:37:27.390Z,6.97
2023-05-14T11:39:55.752Z,6.48
2023-05-14T11:42:23.700Z,6.75
2023-05-14T11:44:52.087Z,6.94
2023-05-14T11:47:21.457Z,7.12
2023-05-14T11:49:49.407Z,7.22
2023-05-14T11:52:19.420Z,6.71
2023-05-14T11:54:46.333Z,7.27
2023-05-14T11:57:16.221Z,7.56
2023-05-14T11:59:43.556Z,7.60
2023-05-14T12:02:12.495Z,8.03
2023-05-14T12:04:40.622Z,7.68
2023-05-14T12:07:14.606Z,6.81
2023-05-14T12:09:49.583Z,6.60
2023-05-14T12:12:22.141Z,7.22
2023-05-14T12:14:50.583Z,6.99
2023-05-14T12:17:17.396Z,6.28
2023-05-14T12:19:46.435Z,6.49
2023-05-14T12:22:17.165Z,6.22
2023-05-14T12:24:53.297Z,6.88
2023-05-14T12:27:26.239Z,6.82
2023-05-14T12:30:27.558Z,6.75
2023-05-14T12:32:54.274Z,6.13
2023-05-14T12:35:22.495Z,6.16
2023-05-14T12:37:49.526Z,6.42
2023-05-14T12:40:16.198Z,6.15
2023-05-14T12:42:42.830Z,6.94
2023-05-14T12:45:09.806Z,6.61
2023-05-14T12:47:37.185Z,6.69
2023-05-14T12:50:05.833Z,6.87
2023-05-14T12:52:38.619Z,6.52
2023-05-14T12:55:10.087Z,6.82
2023-05-14T12:57:38.935Z,6.55
2023-05-14T13:00:07.904Z,6.32
2023-05-14T13:02:42.395Z,7.04
2023-05-14T13:05:10.968Z,6.79
2023-05-14T13:07:38.194Z,6.91
2023-05-14T13:10:08.485Z,6.89
2023-05-14T13:12:35.172Z,6.80
2023-05-14T13:15:01.995Z,7.06
2023-05-14T13:17:28.674Z,6.68
2023-05-14T13:19:55.544Z,7.06
2023-05-14T13:22:22.118Z,6.99
2023-05-14T13:24:48.776Z,7.59
2023-05-14T13:27:15.431Z,7.38
2023-05-14T13:29:42.303Z,7.42
2023-05-14T13:32:08.984Z,7.40
2023-05-14T13:34:36.298Z,7.43
2023-05-14T13:37:03.983Z,7.28
2023-05-14T13:39:30.687Z,7.37
2023-05-14T13:41:57.229Z,7.46
2023-05-14T13:44:24.309Z,7.15
2023-05-14T13:46:51.180Z,7.43
2023-05-14T13:49:17.993Z,7.36
2023-05-14T13:51:44.809Z,7.00
2023-05-14T13:54:11.473Z,6.86
2023-05-14T13:56:38.116Z,6.92
2023-05-14T13:59:04.971Z,7.04
2023-05-14T14:01:31.891Z,6.83
2023-05-14T14:03:58.675Z,7.05
2023-05-14T14:06:27.333Z,6.92
2023-05-14T14:08:54.054Z,6.85
2023-05-14T14:11:21.055Z,6.79
2023-05-14T14:13:47.651Z,7.11
2023-05-14T14:16:14.394Z,7.35
2023-05-14T14:18:43.008Z,7.07
2023-05-14T14:21:10.192Z,7.31
2023-05-14T14:23:36.811Z,6.64
2023-05-14T14:26:03.788Z,6.66
2023-05-14T14:28:30.699Z,7.50
2023-05-14T14:30:57.303Z,7.76
2023-05-14T14:33:23.899Z,6.94
2023-05-14T14:35:50.447Z,6.79
2023-05-14T14:38:17.055Z,7.68
2023-05-14T14:40:43.718Z,7.83
2023-05-14T14:43:10.312Z,7.71
2023-05-14T14:45:36.988Z,6.90
2023-05-14T14:48:33.912Z,7.20
2023-05-14T14:51:01.548Z,6.83
2023-05-14T14:53:28.205Z,6.64
2023-05-14T14:55:55.598Z,6.44
2023-05-14T14:58:22.899Z,6.15
2023-05-14T15:00:53.059Z,6.44
2023-05-14T15:03:21.247Z,6.57
2023-05-14T15:05:49.055Z,6.77
2023-05-14T15:08:15.915Z,7.12
2023-05-14T15:10:42.798Z,7.94
2023-05-14T15:13:09.453Z,7.20
2023-05-14T15:15:36.361Z,7.75
2023-05-14T15:18:04.327Z,9.00
2023-05-14T15:20:31.131Z,7.55
2023-05-14T15:22:57.865Z,7.21
2023-05-14T15:25:26.413Z,7.01
2023-05-14T15:27:53.355Z,6.90
2023-05-14T15:30:20.107Z,6.98
2023-05-14T15:32:46.936Z,7.16
2023-05-14T15:35:13.849Z,7.31
2023-05-14T15:37:44.195Z,7.42
2023-05-14T15:40:11.988Z,7.35
2023-05-14T15:42:44.441Z,7.36
2023-05-14T15:45:13.322Z,6.93
2023-05-14T15:47:41.187Z,7.82
2023-05-14T15:50:09.092Z,7.75
2023-05-14T15:52:36.486Z,7.83
2023-05-14T15:55:04.410Z,7.77
2023-05-14T15:57:31.674Z,7.79
2023-05-14T15:59:58.316Z,7.08
2023-05-14T16:02:24.977Z,7.81
2023-05-14T16:04:51.589Z,7.74
2023-05-14T16:07:18.184Z,7.88
2023-05-14T16:09:44.776Z,7.87
2023-05-14T16:12:12.438Z,8.29
2023-05-14T16:14:41.216Z,8.37
2023-05-14T16:17:08.832Z,8.60
2023-05-14T16:19:35.513Z,8.16
2023-05-14T16:22:02.164Z,8.65
2023-05-14T16:24:28.771Z,8.78
2023-05-14T16:26:56.076Z,8.87
2023-05-14T16:29:22.812Z,8.84
2023-05-14T16:31:49.575Z,9.00
2023-05-14T16:34:16.227Z,8.41
2023-05-14T16:36:43.283Z,8.88
2023-05-14T16:39:11.400Z,8.91
2023-05-14T16:41:38.057Z,8.89
2023-05-14T16:44:04.840Z,9.13
2023-05-14T16:46:32.114Z,9.20
2023-05-14T16:48:58.986Z,9.17
2023-05-14T16:51:25.664Z,9.05
2023-05-14T16:53:52.441Z,8.35
2023-05-14T16:56:21.365Z,8.94
2023-05-14T16:58:48.018Z,8.52
2023-05-14T17:01:14.645Z,8.52
2023-05-14T17:03:41.700Z,8.47
2023-05-14T17:06:10.043Z,8.59
2023-05-14T17:08:36.802Z,9.07
2023-05-14T17:11:05.712Z,8.78
2023-05-14T17:13:33.310Z,8.69
2023-05-14T17:16:00.522Z,8.39
2023-05-14T17:18:27.240Z,9.06
2023-05-14T17:20:53.910Z,9.66
2023-05-14T17:23:20.618Z,10.22
2023-05-14T17:25:47.271Z,10.33
2023-05-14T17:28:13.854Z,10.30
2023-05-14T17:30:40.816Z,10.54
2023-05-14T17:33:07.508Z,10.56
2023-05-14T17:35:36.179Z,11.33
2023-05-14T17:38:03.260Z,11.39
2023-05-14T17:40:29.915Z,11.35
2023-05-14T17:42:56.506Z,11.40
2023-05-14T17:45:23.440Z,11.35
2023-05-14T17:47:51.433Z,10.88
2023-05-14T17:50:18.787Z,11.19
2023-05-14T17:52:46.139Z,11.58
2023-05-14T17:55:13.066Z,10.82
2023-05-14T17:57:39.987Z,10.63
2023-05-14T18:00:08.207Z,10.81
2023-05-14T18:02:35.141Z,11.34
2023-05-14T18:05:02.824Z,11.37
2023-05-14T18:07:30.721Z,11.13
2023-05-14T18:09:57.839Z,10.97
2023-05-14T18:12:27.523Z,11.47
2023-05-14T18:14:54.322Z,11.27
2023-05-14T18:17:21.165Z,10.50
2023-05-14T18:19:47.854Z,10.57
2023-05-14T18:22:15.423Z,10.43
2023-05-14T18:24:44.122Z,10.34
2023-05-14T18:27:11.046Z,10.83
2023-05-14T18:29:37.735Z,10.26
2023-05-14T18:32:04.946Z,10.34
2023-05-14T18:34:31.551Z,10.61
2023-05-14T18:36:58.418Z,10.44
2023-05-14T18:39:25.028Z,10.53
2023-05-14T18:41:52.020Z,10.86
2023-05-14T18:44:18.785Z,9.85
2023-05-14T18:46:45.752Z,9.47
2023-05-14T18:49:12.538Z,9.55
2023-05-14T18:51:39.129Z,9.47
2023-05-14T18:54:05.856Z,9.12
2023-05-14T18:56:32.585Z,9.20
2023-05-14T18:58:59.378Z,9.53
2023-05-14T19:01:26.133Z,8.99
2023-05-14T19:03:53.220Z,9.15
2023-05-14T19:06:20.176Z,9.50
2023-05-14T19:08:46.778Z,9.48
2023-05-14T19:11:13.407Z,9.81
2023-05-14T19:13:40.031Z,9.86
2023-05-14T19:16:06.717Z,10.33
2023-05-14T19:18:33.690Z,10.18
2023-05-14T19:21:00.535Z,10.24
2023-05-14T19:23:27.139Z,10.16
2023-05-14T19:25:53.809Z,10.99
2023-05-14T19:28:20.517Z,11.30
2023-05-14T19:30:47.720Z,11.40
2023-05-14T19:33:14.365Z,11.19
2023-05-14T19:35:40.936Z,11.06
2023-05-14T19:38:09.113Z,10.78
2023-05-14T19:40:35.713Z,10.22
2023-05-14T19:43:02.306Z,9.77
2023-05-14T19:45:29.004Z,9.81
2023-05-14T19:47:55.834Z,9.72
2023-05-14T19:50:22.453Z,9.74
2023-05-14T19:52:49.046Z,10.07
2023-05-14T19:55:15.641Z,10.24
2023-05-14T19:57:42.244Z,10.63
2023-05-14T20:00:09.462Z,11.11
2023-05-14T20:02:36.120Z,11.41
2023-05-14T20:05:02.828Z,11.22
2023-05-14T20:07:29.458Z,11.44
2023-05-14T20:09:56.263Z,11.07
2023-05-14T20:12:22.916Z,11.40
2023-05-14T20:14:49.517Z,11.33
2023-05-14T20:17:16.291Z,11.87
2023-05-14T20:19:43.749Z,12.20
2023-05-14T20:22:10.445Z,12.01
2023-05-14T20:24:37.072Z,11.88
2023-05-14T20:27:03.936Z,12.00
2023-05-14T20:29:30.518Z,12.00
2023-05-14T20:31:57.059Z,11.78
2023-05-14T20:34:23.710Z,11.61
2023-05-14T20:36:50.704Z,11.88
2023-05-14T20:39:17.300Z,11.71
2023-05-14T20:41:45.613Z,11.45
2023-05-14T20:44:12.265Z,11.56
2023-05-14T20:46:39.139Z,11.72
2023-05-14T20:49:05.760Z,11.30
2023-05-14T20:51:32.675Z,12.11
2023-05-14T20:53:59.315Z,11.44
2023-05-14T20:56:26.472Z,11.96
2023-05-14T20:58:53.095Z,11.90
2023-05-14T21:01:19.726Z,12.13
2023-05-14T21:03:46.456Z,12.33
2023-05-14T21:06:13.235Z,12.23
2023-05-14T21:08:40.406Z,12.26
2023-05-14T21:11:07.041Z,12.52
2023-05-14T21:13:33.676Z,12.50
2023-05-14T21:16:00.599Z,12.66
2023-05-14T21:18:30.590Z,12.62
2023-05-14T21:20:57.300Z,12.82
2023-05-14T21:23:23.945Z,12.52
2023-05-14T21:25:51.108Z,12.48
2023-05-14T21:28:17.676Z,12.65
2023-05-14T21:30:44.315Z,12.62
2023-05-14T21:33:11.059Z,12.95
2023-05-14T21:35:37.756Z,12.45
2023-05-14T21:38:04.523Z,13.20
2023-05-14T21:40:31.259Z,12.63
2023-05-14T21:42:57.856Z,12.46
2023-05-14T21:45:24.438Z,12.06
2023-05-14T21:47:51.189Z,12.50
2023-05-14T21:50:17.957Z,12.47
2023-05-14T21:52:44.575Z,12.60
2023-05-14T21:55:11.345Z,13.12
2023-05-14T21:57:38.164Z,13.14
2023-05-14T22:00:08.671Z,13.11
2023-05-14T22:02:35.299Z,13.12
2023-05-14T22:05:02.015Z,12.79
2023-05-14T22:07:28.641Z,13.10
2023-05-14T22:09:55.892Z,13.00
2023-05-14T22:12:22.500Z,13.37
2023-05-14T22:14:49.129Z,13.00
2023-05-14T22:17:15.930Z,13.56
2023-05-14T22:19:42.543Z,13.69
2023-05-14T22:22:09.147Z,13.36
2023-05-14T22:24:35.745Z,13.92
2023-05-14T22:27:02.405Z,14.38
2023-05-14T22:29:29.008Z,14.26
2023-05-14T22:31:55.811Z,14.41
2023-05-14T22:34:22.486Z,14.49
2023-05-14T22:36:49.097Z,14.30
2023-05-14T22:39:15.774Z,14.46
2023-05-14T22:41:42.380Z,14.89
2023-05-14T22:44:08.928Z,14.79
2023-05-14T22:46:35.795Z,14.26
2023-05-14T22:49:02.386Z,15.60
2023-05-14T22:51:29.006Z,15.50
2023-05-14T22:53:55.574Z,15.61
2023-05-14T22:56:22.312Z,15.93
2023-05-14T22:58:48.941Z,16.55
2023-05-14T23:01:15.832Z,16.74
2023-05-14T23:03:42.458Z,16.52
2023-05-14T23:06:09.081Z,17.01
2023-05-14T23:08:35.701Z,17.08
2023-05-14T23:11:02.286Z,16.92
2023-05-14T23:13:28.892Z,17.46
2023-05-14T23:15:55.521Z,17.51
2023-05-14T23:18:23.897Z,17.57
2023-05-14T23:20:50.700Z,17.12
2023-05-14T23:23:17.337Z,17.25
2023-05-14T23:25:44.194Z,17.39
2023-05-14T23:28:11.183Z,17.77
2023-05-14T23:30:37.915Z,17.55
2023-05-14T23:33:04.726Z,17.86
2023-05-14T23:35:31.474Z,18.77
2023-05-14T23:37:58.204Z,18.53
2023-05-14T23:40:24.866Z,18.53
2023-05-14T23:42:51.641Z,18.53
2023-05-14T23:45:18.331Z,18.45
2023-05-14T23:47:45.146Z,19.16
2023-05-14T23:50:11.738Z,18.50
2023-05-14T23:52:38.320Z,19.11
2023-05-14T23:55:05.368Z,19.28
2023-05-14T23:57:32.078Z,18.87
2023-05-14T23:59:58.790Z,19.46
